Time;durP1;ratioP1;P1;durP2;ratioP2;P2;SDS_P1;SDS_P2;PMS_P1;PMS_P2;Temp;Humidity;BMP_temperature;BMP_pressure;BME280_temperature;BME280_humidity;BME280_pressure;Samples;Min_cycle;Max_cycle;Signal;HPM_P1;HPM_P2
2022/10/21 00:02:16;;;;;;;30.88;16.95;;;12.10;99.90;;;;;;5041323;28;20045;-62
2022/10/21 00:04:41;;;;;;;29.90;17.08;;;12.10;99.90;;;;;;5043557;28;20033;-63
2022/10/21 00:07:07;;;;;;;31.88;17.23;;;12.20;99.90;;;;;;5055232;28;20040;-63
2022/10/21 00:09:33;;;;;;;27.00;17.63;;;12.10;99.90;;;;;;5044121;28;20399;-63
2022/10/21 00:11:58;;;;;;;27.50;17.08;;;12.10;99.90;;;;;;5038808;28;20041;-63
2022/10/21 00:14:24;;;;;;;28.10;17.30;;;12.10;99.90;;;;;;5048205;28;20644;-63
2022/10/21 00:16:49;;;;;;;29.85;17.02;;;12.10;99.90;;;;;;5046346;28;20036;-63
2022/10/21 00:19:15;;;;;;;27.27;17.40;;;12.10;99.90;;;;;;5037442;28;20041;-63
2022/10/21 00:21:41;;;;;;;22.77;16.85;;;12.00;99.90;;;;;;5047391;28;20037;-63
2022/10/21 00:24:07;;;;;;;27.85;17.10;;;12.00;99.90;;;;;;5049563;28;20365;-63
2022/10/21 00:26:32;;;;;;;26.98;17.63;;;12.00;99.90;;;;;;5042131;28;20044;-63
2022/10/21 00:28:58;;;;;;;28.77;18.10;;;12.10;99.90;;;;;;5049521;28;20110;-63
2022/10/21 00:31:24;;;;;;;28.50;17.85;;;12.00;99.90;;;;;;5044425;28;20049;-63
2022/10/21 00:33:50;;;;;;;27.08;17.45;;;12.00;99.90;;;;;;5038613;28;20395;-62
2022/10/21 00:36:16;;;;;;;26.05;16.63;;;12.00;99.90;;;;;;5043660;28;20076;-63
2022/10/21 00:38:44;;;;;;;27.45;17.30;;;12.00;99.90;;;;;;5039772;28;20739;-63
2022/10/21 00:41:10;;;;;;;23.50;16.20;;;12.00;99.90;;;;;;5045602;28;20041;-63
2022/10/21 00:43:55;;;;;;;25.73;17.83;;;12.00;99.90;;;;;;5049743;28;20041;-63
2022/10/21 00:46:33;;;;;;;25.02;17.10;;;12.10;99.90;;;;;;5050425;28;20037;-63
2022/10/21 00:49:03;;;;;;;27.42;17.23;;;12.00;99.90;;;;;;5044469;28;20041;-63
2022/10/21 00:51:30;;;;;;;24.58;17.30;;;12.00;99.90;;;;;;5041977;28;20454;-63
2022/10/21 00:53:57;;;;;;;23.20;17.08;;;12.00;99.90;;;;;;5042774;28;20041;-65
2022/10/21 00:56:29;;;;;;;26.75;16.65;;;12.00;99.90;;;;;;5048216;28;20454;-63
2022/10/21 00:58:58;;;;;;;31.35;17.13;;;12.00;99.90;;;;;;5038991;28;20055;-64
2022/10/21 01:01:23;;;;;;;27.83;16.75;;;12.00;99.90;;;;;;5047887;28;20084;-63
2022/10/21 01:03:50;;;;;;;29.48;16.40;;;12.00;99.90;;;;;;5038978;28;20065;-63
2022/10/21 01:06:19;;;;;;;25.65;17.48;;;12.10;99.90;;;;;;5048188;28;20045;-63
2022/10/21 01:08:45;;;;;;;25.60;15.95;;;12.00;99.90;;;;;;5029433;28;20041;-64
2022/10/21 01:11:16;;;;;;;25.67;17.17;;;12.00;99.90;;;;;;5037233;28;20041;-64
2022/10/21 01:14:30;;;;;;;22.15;15.82;;;12.00;99.90;;;;;;5050465;28;21336;-63
2022/10/21 01:17:16;;;;;;;27.60;16.70;;;12.00;99.90;;;;;;4993654;28;20510;-62
2022/10/21 01:20:07;;;;;;;23.38;16.15;;;12.00;99.90;;;;;;5043476;28;21138;-63
2022/10/21 01:23:02;;;;;;;25.75;16.70;;;12.00;99.90;;;;;;5047385;28;20059;-63
2022/10/21 01:26:07;;;;;;;23.30;16.90;;;12.00;99.90;;;;;;5049632;28;20458;-63
2022/10/21 01:28:58;;;;;;;27.75;17.33;;;12.10;99.90;;;;;;5042488;28;20037;-65
2022/10/21 01:31:31;;;;;;;28.90;17.20;;;12.10;99.90;;;;;;5046437;28;20387;-63
2022/10/21 01:34:13;;;;;;;26.23;16.42;;;12.10;99.90;;;;;;5042431;28;20086;-64
2022/10/21 01:36:41;;;;;;;23.42;15.63;;;12.10;99.90;;;;;;5048232;28;20067;-63
2022/10/21 01:39:13;;;;;;;27.98;16.90;;;12.10;99.90;;;;;;5049532;28;20047;-65
2022/10/21 01:42:20;;;;;;;25.77;17.43;;;12.10;99.90;;;;;;5039532;28;20052;-63
2022/10/21 01:45:07;;;;;;;26.58;17.33;;;12.10;99.90;;;;;;4968280;28;20070;-64
2022/10/21 01:47:37;;;;;;;31.05;18.48;;;12.20;99.90;;;;;;5037614;28;20063;-63
2022/10/21 01:50:15;;;;;;;29.13;18.45;;;12.20;99.90;;;;;;5044805;28;20048;-63
2022/10/21 01:52:46;;;;;;;31.75;18.42;;;12.20;99.90;;;;;;5042038;28;20080;-63
2022/10/21 01:55:16;;;;;;;30.77;17.83;;;12.20;99.90;;;;;;5041231;28;20029;-66
2022/10/21 01:57:47;;;;;;;28.95;18.25;;;12.20;99.90;;;;;;5048108;28;20406;-63
2022/10/21 02:00:13;;;;;;;30.95;18.40;;;12.20;99.90;;;;;;5041072;28;20039;-63
2022/10/21 02:02:44;;;;;;;32.45;18.85;;;12.30;99.90;;;;;;5049724;28;20399;-63
2022/10/21 02:05:25;;;;;;;34.40;18.55;;;12.30;99.90;;;;;;5041114;28;20040;-64
2022/10/21 02:07:50;;;;;;;32.15;18.45;;;12.20;99.90;;;;;;5058934;28;20053;-64
2022/10/21 02:10:17;;;;;;;28.00;18.30;;;12.30;99.90;;;;;;5041593;28;20159;-67
2022/10/21 02:12:45;;;;;;;33.65;19.00;;;12.30;99.90;;;;;;5050852;28;20522;-64
2022/10/21 02:15:14;;;;;;;32.47;18.63;;;12.30;99.90;;;;;;5043548;28;20418;-64
2022/10/21 02:17:43;;;;;;;28.60;18.58;;;12.40;99.90;;;;;;5043658;28;20048;-64
2022/10/21 02:20:11;;;;;;;26.88;17.45;;;12.30;99.90;;;;;;5053564;28;20119;-64
2022/10/21 02:22:38;;;;;;;30.55;16.92;;;12.40;99.90;;;;;;5043806;28;20514;-64
2022/10/21 02:25:19;;;;;;;29.00;17.20;;;12.30;99.90;;;;;;5046152;28;20604;-65
2022/10/21 02:27:45;;;;;;;25.60;16.02;;;12.30;99.90;;;;;;5044191;28;20056;-64
2022/10/21 02:30:11;;;;;;;30.67;17.25;;;12.30;99.90;;;;;;5048372;28;20048;-66
2022/10/21 02:32:45;;;;;;;27.42;17.92;;;12.40;99.90;;;;;;5055251;28;20045;-64
2022/10/21 02:35:30;;;;;;;27.23;18.30;;;12.40;99.90;;;;;;5048759;28;20044;-64
2022/10/21 02:38:08;;;;;;;32.10;19.00;;;12.40;99.90;;;;;;5041077;28;20036;-64
2022/10/21 02:40:57;;;;;;;30.55;18.98;;;12.50;99.90;;;;;;5051522;28;20487;-64
2022/10/21 02:43:31;;;;;;;25.75;17.35;;;12.50;99.90;;;;;;5044997;28;20056;-66
2022/10/21 02:46:07;;;;;;;29.02;17.25;;;12.50;99.90;;;;;;5047249;28;20049;-63
2022/10/21 02:48:33;;;;;;;35.83;18.02;;;12.50;99.90;;;;;;5042610;28;20039;-64
2022/10/21 02:51:00;;;;;;;27.77;17.75;;;12.60;99.90;;;;;;5053033;28;20048;-63
2022/10/21 02:53:26;;;;;;;24.58;17.27;;;12.60;99.90;;;;;;5043601;28;20396;-64
2022/10/21 02:55:52;;;;;;;30.02;18.73;;;12.60;99.90;;;;;;5043886;28;20033;-64
2022/10/21 02:58:17;;;;;;;24.15;16.60;;;12.50;99.90;;;;;;5046999;28;20070;-65
2022/10/21 03:00:43;;;;;;;25.45;16.45;;;12.50;99.90;;;;;;5048299;28;20720;-64
2022/10/21 03:03:08;;;;;;;24.38;16.05;;;12.60;99.90;;;;;;5051632;28;20044;-64
2022/10/21 03:05:34;;;;;;;23.75;16.10;;;12.50;99.90;;;;;;5053793;28;20071;-64
2022/10/21 03:07:59;;;;;;;21.23;15.38;;;12.60;99.90;;;;;;5047265;28;20484;-64
2022/10/21 03:10:25;;;;;;;20.20;14.80;;;12.50;99.90;;;;;;5047571;28;20167;-63
2022/10/21 03:12:51;;;;;;;19.10;14.63;;;12.50;99.90;;;;;;5045276;28;20068;-64
2022/10/21 03:15:16;;;;;;;24.05;14.88;;;12.50;99.90;;;;;;5037571;28;20488;-64
2022/10/21 03:17:42;;;;;;;21.45;15.02;;;12.50;99.90;;;;;;5048557;28;20060;-64
2022/10/21 03:20:08;;;;;;;20.70;14.35;;;12.50;99.90;;;;;;5041306;28;20509;-64
2022/10/21 03:22:34;;;;;;;22.25;14.77;;;12.50;99.90;;;;;;5032731;28;20041;-64
2022/10/21 03:24:59;;;;;;;21.40;14.68;;;12.40;99.90;;;;;;5049226;28;20083;-63
2022/10/21 03:27:26;;;;;;;21.55;15.00;;;12.50;99.90;;;;;;5047488;28;20099;-63
2022/10/21 03:29:51;;;;;;;20.73;14.07;;;12.50;99.90;;;;;;5044644;28;20037;-64
2022/10/21 03:32:17;;;;;;;20.50;14.05;;;12.50;99.90;;;;;;5040184;28;20037;-63
2022/10/21 03:34:42;;;;;;;27.33;14.27;;;12.50;99.90;;;;;;5049088;28;20037;-64
2022/10/21 03:37:08;;;;;;;23.27;14.73;;;12.50;99.90;;;;;;5048616;28;20495;-63
2022/10/21 03:39:33;;;;;;;22.40;14.32;;;12.60;99.90;;;;;;5041718;28;20044;-63
2022/10/21 03:41:59;;;;;;;27.00;16.35;;;12.60;99.90;;;;;;5047470;28;20103;-63
2022/10/21 03:44:25;;;;;;;22.10;14.85;;;12.50;99.90;;;;;;5046033;28;20037;-64
2022/10/21 03:46:50;;;;;;;19.50;14.77;;;12.60;99.90;;;;;;5048135;28;20134;-64
2022/10/21 03:49:16;;;;;;;23.42;14.30;;;12.60;99.90;;;;;;5045432;28;20112;-64
2022/10/21 03:51:42;;;;;;;22.23;15.63;;;12.60;99.90;;;;;;5042059;28;20071;-64
2022/10/21 03:54:07;;;;;;;22.35;14.65;;;12.60;99.90;;;;;;5045193;28;20474;-63
2022/10/21 03:56:33;;;;;;;20.02;14.60;;;12.60;99.90;;;;;;5042934;28;20119;-64
2022/10/21 03:58:59;;;;;;;22.73;16.13;;;12.60;99.90;;;;;;5049242;28;20068;-64
2022/10/21 04:01:25;;;;;;;27.15;16.40;;;12.60;99.90;;;;;;5050742;28;20132;-64
2022/10/21 04:03:51;;;;;;;31.42;18.83;;;12.60;99.90;;;;;;5045197;28;20390;-64
2022/10/21 04:06:16;;;;;;;36.80;17.90;;;12.70;99.90;;;;;;5040347;28;20033;-63
2022/10/21 04:08:42;;;;;;;33.92;19.27;;;12.70;99.90;;;;;;5040564;28;20602;-64
2022/10/21 04:11:08;;;;;;;30.75;18.45;;;12.80;99.90;;;;;;5049764;28;20064;-63
2022/10/21 04:13:33;;;;;;;28.45;17.95;;;12.80;99.90;;;;;;5038422;28;20396;-64
2022/10/21 04:16:01;;;;;;;33.60;19.20;;;12.80;99.90;;;;;;5039899;28;20094;-64
2022/10/21 04:18:27;;;;;;;38.83;18.63;;;12.80;99.90;;;;;;5042359;28;20041;-64
2022/10/21 04:20:53;;;;;;;30.40;18.25;;;12.70;99.90;;;;;;5042728;28;20037;-64
2022/10/21 04:23:18;;;;;;;35.85;19.23;;;12.70;99.90;;;;;;5044152;28;20040;-63
2022/10/21 04:25:45;;;;;;;30.80;18.05;;;12.80;99.90;;;;;;5056853;28;20037;-63
2022/10/21 04:28:10;;;;;;;33.15;19.35;;;12.80;99.90;;;;;;5036485;28;20075;-64
2022/10/21 04:30:36;;;;;;;36.88;19.13;;;12.80;99.90;;;;;;5046669;28;20072;-64
2022/10/21 04:33:02;;;;;;;34.03;18.55;;;12.80;99.90;;;;;;5045549;28;20040;-64
2022/10/21 04:35:27;;;;;;;32.83;18.95;;;12.80;99.90;;;;;;5043966;28;20427;-64
2022/10/21 04:37:53;;;;;;;34.85;19.27;;;12.90;99.90;;;;;;5049129;28;20037;-64
2022/10/21 04:40:19;;;;;;;41.08;20.25;;;12.90;99.90;;;;;;5046563;28;20145;-64
2022/10/21 04:42:48;;;;;;;28.58;18.40;;;12.90;99.90;;;;;;5037998;28;20041;-64
2022/10/21 04:45:15;;;;;;;33.72;18.10;;;12.90;99.90;;;;;;5036284;28;20069;-63
2022/10/21 04:47:40;;;;;;;31.80;17.55;;;12.90;99.90;;;;;;5049718;28;20045;-63
2022/10/21 04:50:06;;;;;;;28.08;17.02;;;12.90;99.90;;;;;;5045341;28;20037;-63
2022/10/21 04:52:32;;;;;;;29.20;17.83;;;12.80;99.90;;;;;;5044728;28;20381;-63
2022/10/21 04:54:57;;;;;;;29.70;17.35;;;12.80;99.90;;;;;;5047633;28;20045;-64
2022/10/21 04:57:23;;;;;;;26.10;16.55;;;12.80;99.90;;;;;;5049570;28;20487;-64
2022/10/21 04:59:49;;;;;;;27.38;17.00;;;12.80;99.90;;;;;;5046359;28;20163;-63
2022/10/21 05:02:15;;;;;;;24.00;16.52;;;12.80;99.90;;;;;;5041469;28;20102;-63
2022/10/21 05:04:40;;;;;;;28.83;17.88;;;12.70;99.90;;;;;;5044669;28;20149;-63
2022/10/21 05:07:06;;;;;;;25.80;16.33;;;12.80;99.90;;;;;;5054642;28;20171;-63
2022/10/21 05:09:32;;;;;;;28.02;16.85;;;12.70;99.90;;;;;;5046000;28;20091;-63
2022/10/21 05:11:58;;;;;;;25.50;16.05;;;12.80;99.90;;;;;;5039654;28;20033;-64
2022/10/21 05:14:23;;;;;;;30.73;17.73;;;12.70;99.90;;;;;;5059727;28;20033;-63
2022/10/21 05:16:49;;;;;;;24.65;16.52;;;12.60;99.90;;;;;;5052595;28;20042;-64
2022/10/21 05:19:14;;;;;;;23.35;16.33;;;12.70;99.90;;;;;;5043152;28;20267;-64
2022/10/21 05:21:40;;;;;;;26.10;16.02;;;12.70;99.90;;;;;;5047990;28;20072;-64
2022/10/21 05:24:06;;;;;;;26.63;17.15;;;12.70;99.90;;;;;;5052800;28;20045;-64
2022/10/21 05:26:31;;;;;;;26.25;17.25;;;12.70;99.90;;;;;;5038035;28;20037;-63
2022/10/21 05:28:58;;;;;;;22.83;15.93;;;12.60;99.90;;;;;;5047565;28;20083;-64
2022/10/21 05:31:24;;;;;;;26.13;17.48;;;12.70;99.90;;;;;;5031063;28;20332;-63
2022/10/21 05:33:50;;;;;;;33.38;18.23;;;12.60;99.90;;;;;;5051094;28;20088;-63
2022/10/21 05:36:16;;;;;;;26.38;16.75;;;12.60;99.90;;;;;;5040972;28;20076;-63
2022/10/21 05:38:41;;;;;;;31.67;18.40;;;12.60;99.90;;;;;;5039597;28;20037;-63
2022/10/21 05:41:09;;;;;;;28.67;18.08;;;12.60;99.90;;;;;;5039484;28;20037;-64
2022/10/21 05:43:36;;;;;;;29.00;18.02;;;12.60;99.90;;;;;;5048680;28;20037;-63
2022/10/21 05:46:02;;;;;;;30.50;17.30;;;12.60;99.90;;;;;;5048360;28;20044;-64
2022/10/21 05:48:27;;;;;;;32.80;18.67;;;12.50;99.90;;;;;;5044913;28;20037;-63
2022/10/21 05:50:54;;;;;;;27.63;17.45;;;12.60;99.90;;;;;;5041641;28;20546;-64
2022/10/21 05:53:22;;;;;;;32.20;18.35;;;12.50;99.90;;;;;;5044450;28;20043;-64
2022/10/21 05:56:03;;;;;;;29.02;18.27;;;12.50;99.90;;;;;;5047157;28;20041;-63
2022/10/21 05:58:29;;;;;;;30.92;18.25;;;12.50;99.90;;;;;;5041941;28;20096;-63
2022/10/21 06:00:55;;;;;;;32.35;18.85;;;12.50;99.90;;;;;;5051704;28;20095;-63
2022/10/21 06:03:30;;;;;;;32.10;18.85;;;12.50;99.90;;;;;;5046360;28;20029;-63
2022/10/21 06:06:00;;;;;;;35.35;18.92;;;12.50;99.90;;;;;;5047589;28;20041;-63
2022/10/21 06:08:27;;;;;;;29.40;18.52;;;12.50;99.90;;;;;;5048379;28;20049;-63
2022/10/21 06:11:19;;;;;;;30.88;18.80;;;12.50;99.90;;;;;;5048702;28;20037;-63
2022/10/21 06:13:45;;;;;;;33.47;18.35;;;12.50;99.90;;;;;;5041960;28;20052;-63
2022/10/21 06:16:12;;;;;;;31.33;18.25;;;12.60;99.90;;;;;;5046731;28;20532;-63
2022/10/21 06:18:38;;;;;;;33.38;19.77;;;12.60;99.90;;;;;;5048689;28;20039;-63
2022/10/21 06:21:05;;;;;;;35.58;19.35;;;12.60;99.90;;;;;;5045571;28;20028;-63
2022/10/21 06:23:30;;;;;;;34.95;18.42;;;12.60;99.90;;;;;;5048307;28;20051;-64
2022/10/21 06:26:01;;;;;;;34.78;18.98;;;12.60;99.90;;;;;;5049608;28;20495;-64
2022/10/21 06:28:29;;;;;;;29.98;18.67;;;12.70;99.90;;;;;;5046155;28;20041;-63
2022/10/21 06:30:55;;;;;;;30.33;18.08;;;12.70;99.90;;;;;;5059365;28;20052;-64
2022/10/21 06:33:21;;;;;;;32.28;18.55;;;12.70;99.90;;;;;;5045247;28;20044;-63
2022/10/21 06:35:47;;;;;;;36.30;18.83;;;12.70;99.90;;;;;;5047345;28;20090;-64
2022/10/21 06:38:13;;;;;;;29.25;18.30;;;12.70;99.90;;;;;;5047834;28;20100;-64
2022/10/21 06:40:39;;;;;;;36.67;18.98;;;12.70;99.90;;;;;;5047842;28;20658;-64
2022/10/21 06:43:05;;;;;;;30.92;17.95;;;12.70;99.90;;;;;;5047671;28;20219;-64
2022/10/21 06:45:31;;;;;;;33.00;18.77;;;12.60;99.90;;;;;;5047211;28;20033;-64
2022/10/21 06:47:56;;;;;;;29.88;17.08;;;12.60;99.90;;;;;;5048127;28;20117;-63
2022/10/21 06:50:22;;;;;;;32.85;17.83;;;12.60;99.90;;;;;;5037223;28;20030;-63
2022/10/21 06:52:49;;;;;;;26.35;16.90;;;12.60;99.90;;;;;;5032505;28;20500;-63
2022/10/21 06:55:15;;;;;;;26.35;16.25;;;12.60;99.90;;;;;;5048946;28;20071;-64
2022/10/21 06:57:41;;;;;;;22.13;15.10;;;12.60;99.90;;;;;;5037816;28;20049;-63
2022/10/21 07:00:07;;;;;;;27.17;15.27;;;12.60;99.90;;;;;;5038953;28;20049;-64
2022/10/21 07:02:33;;;;;;;29.52;16.25;;;12.50;99.90;;;;;;5051075;28;20395;-63
2022/10/21 07:04:59;;;;;;;25.38;15.98;;;12.60;99.90;;;;;;5046350;28;20045;-63
2022/10/21 07:07:24;;;;;;;90.60;19.10;;;12.60;99.90;;;;;;5041339;28;20533;-64
2022/10/21 07:09:56;;;;;;;35.10;15.13;;;12.60;99.90;;;;;;5050008;28;20128;-64
2022/10/21 07:12:26;;;;;;;32.65;17.20;;;12.60;99.90;;;;;;5049412;28;20484;-64
2022/10/21 07:14:53;;;;;;;29.80;17.42;;;12.60;99.90;;;;;;5059246;28;20045;-64
2022/10/21 07:17:19;;;;;;;29.48;15.75;;;12.60;99.90;;;;;;5051016;28;20115;-63
2022/10/21 07:19:45;;;;;;;27.25;15.35;;;12.60;99.90;;;;;;5040198;28;20122;-63
2022/10/21 07:22:12;;;;;;;27.45;15.88;;;12.60;99.90;;;;;;5047468;28;20053;-63
2022/10/21 07:24:38;;;;;;;32.42;15.57;;;12.60;99.90;;;;;;5042629;28;20025;-63
2022/10/21 07:27:04;;;;;;;28.90;15.50;;;12.60;99.90;;;;;;5052010;28;20509;-63
2022/10/21 07:29:30;;;;;;;25.98;15.38;;;12.60;99.90;;;;;;5043259;28;20041;-64
2022/10/21 07:31:56;;;;;;;27.23;15.85;;;12.70;99.90;;;;;;5034496;28;20495;-63
2022/10/21 07:34:23;;;;;;;22.63;14.73;;;12.70;99.90;;;;;;5052458;28;20052;-63
2022/10/21 07:36:51;;;;;;;24.60;15.45;;;12.70;99.90;;;;;;5038801;28;20037;-63
2022/10/21 07:39:20;;;;;;;23.85;15.48;;;12.70;99.90;;;;;;5043792;28;20044;-63
2022/10/21 07:41:48;;;;;;;23.08;15.80;;;12.80;99.90;;;;;;5050945;28;20045;-63
2022/10/21 07:44:15;;;;;;;26.10;16.08;;;12.80;99.90;;;;;;5042218;28;20494;-63
2022/10/21 07:46:42;;;;;;;29.30;16.75;;;12.90;99.90;;;;;;5036991;28;20093;-63
2022/10/21 07:49:08;;;;;;;30.25;17.50;;;12.90;99.90;;;;;;5043462;28;20044;-63
2022/10/21 07:51:34;;;;;;;21.90;15.82;;;13.00;99.90;;;;;;5042673;28;20060;-63
2022/10/21 07:54:00;;;;;;;27.30;16.33;;;13.00;99.90;;;;;;5047927;28;20045;-63
2022/10/21 07:56:30;;;;;;;23.20;16.55;;;13.10;99.90;;;;;;5044054;28;20045;-63
2022/10/21 07:58:55;;;;;;;28.48;17.73;;;13.10;99.90;;;;;;5039351;28;20065;-63
2022/10/21 08:01:21;;;;;;;28.70;17.42;;;13.20;99.90;;;;;;5052434;28;20029;-63
2022/10/21 08:03:48;;;;;;;30.40;17.58;;;13.30;99.90;;;;;;5054626;28;20363;-63
2022/10/21 08:06:16;;;;;;;29.02;16.88;;;13.30;99.90;;;;;;5052465;28;20032;-63
2022/10/21 08:08:42;;;;;;;32.22;18.05;;;13.30;99.90;;;;;;5061882;28;20393;-63
2022/10/21 08:11:08;;;;;;;29.77;16.65;;;13.40;99.90;;;;;;5044528;28;20123;-63
2022/10/21 08:13:34;;;;;;;26.85;16.02;;;13.50;99.90;;;;;;5036657;28;20444;-63
2022/10/21 08:16:03;;;;;;;30.67;16.63;;;13.60;99.90;;;;;;5055270;28;20049;-63
2022/10/21 08:18:28;;;;;;;29.02;16.10;;;13.60;99.90;;;;;;5055468;28;20032;-63
2022/10/21 08:20:54;;;;;;;33.38;17.45;;;13.70;99.90;;;;;;5047190;28;20514;-63
2022/10/21 08:23:22;;;;;;;26.60;16.38;;;13.70;99.90;;;;;;5034703;28;20107;-63
2022/10/21 08:25:54;;;;;;;23.92;15.98;;;13.70;99.90;;;;;;5038287;28;20560;-63
2022/10/21 08:28:21;;;;;;;26.50;15.80;;;13.80;99.90;;;;;;5045168;28;20036;-63
2022/10/21 08:30:47;;;;;;;24.70;15.63;;;13.80;99.90;;;;;;5035217;28;20488;-63
2022/10/21 08:33:13;;;;;;;26.90;15.60;;;13.90;99.90;;;;;;5044156;28;20039;-63
2022/10/21 08:35:40;;;;;;;26.00;15.90;;;13.90;99.90;;;;;;5036895;28;20109;-63
2022/10/21 08:38:06;;;;;;;25.65;15.80;;;13.90;99.90;;;;;;5044464;28;20045;-63
2022/10/21 08:40:45;;;;;;;27.10;15.73;;;14.00;99.90;;;;;;5039768;28;20040;-63
2022/10/21 08:43:26;;;;;;;28.65;15.48;;;14.00;99.90;;;;;;5042494;28;20045;-63
2022/10/21 08:46:17;;;;;;;24.00;14.20;;;14.00;99.90;;;;;;5051245;28;20037;-63
2022/10/21 08:48:48;;;;;;;22.30;13.60;;;14.00;99.90;;;;;;5036837;28;20054;-63
2022/10/21 08:51:29;;;;;;;24.45;13.95;;;14.10;99.90;;;;;;5039160;28;20492;-63
2022/10/21 08:53:58;;;;;;;21.50;14.30;;;14.10;99.90;;;;;;5046722;28;20557;-64
2022/10/21 08:56:25;;;;;;;23.85;14.15;;;14.20;99.90;;;;;;5041933;28;20045;-63
2022/10/21 08:58:51;;;;;;;28.10;14.20;;;14.20;99.90;;;;;;5032797;28;20041;-63
2022/10/21 09:01:46;;;;;;;19.25;13.50;;;14.20;99.90;;;;;;5038459;28;20037;-63
2022/10/21 09:04:24;;;;;;;20.85;14.02;;;14.20;99.90;;;;;;5032843;28;20033;-63
2022/10/21 09:07:05;;;;;;;30.27;13.93;;;14.30;99.90;;;;;;5058203;28;20480;-63
2022/10/21 09:09:59;;;;;;;23.90;12.70;;;14.30;99.90;;;;;;5040190;28;20415;-63
2022/10/21 09:12:29;;;;;;;20.75;13.82;;;14.40;99.90;;;;;;5015168;28;20048;-62
2022/10/21 09:15:20;;;;;;;21.95;13.38;;;14.40;99.90;;;;;;5029624;28;20131;-62
2022/10/21 09:17:51;;;;;;;24.60;13.05;;;14.50;99.90;;;;;;5014884;28;20048;-63
2022/10/21 09:20:49;;;;;;;17.00;11.83;;;14.50;99.90;;;;;;5046138;28;20037;-62
2022/10/21 09:23:37;;;;;;;20.85;13.02;;;14.60;99.90;;;;;;5038375;28;20118;-62
2022/10/21 09:26:40;;;;;;;20.30;12.20;;;14.70;99.90;;;;;;5048755;28;20056;-62
2022/10/21 09:29:27;;;;;;;17.92;11.65;;;14.70;99.90;;;;;;5040689;28;20073;-63
2022/10/21 09:31:58;;;;;;;16.98;10.85;;;14.80;99.90;;;;;;5035719;28;20037;-62
2022/10/21 09:34:51;;;;;;;21.35;11.80;;;14.80;99.90;;;;;;5049137;28;20052;-63
2022/10/21 09:37:35;;;;;;;17.65;11.43;;;14.90;99.90;;;;;;5045072;28;20045;-63
2022/10/21 09:40:22;;;;;;;18.08;11.48;;;14.90;99.90;;;;;;5050116;28;20411;-64
2022/10/21 09:42:51;;;;;;;16.80;10.75;;;15.00;99.90;;;;;;5048697;28;20056;-62
2022/10/21 09:45:49;;;;;;;17.45;10.50;;;15.00;99.90;;;;;;5036239;28;20053;-64
2022/10/21 09:48:17;;;;;;;17.67;10.32;;;15.10;99.90;;;;;;5031506;28;20056;-62
2022/10/21 09:50:51;;;;;;;18.45;10.73;;;15.10;99.90;;;;;;5029877;28;20053;-62
2022/10/21 09:53:31;;;;;;;17.23;10.27;;;15.10;99.90;;;;;;5049778;28;20041;-64
2022/10/21 09:56:17;;;;;;;15.50;10.25;;;15.10;99.90;;;;;;5043775;28;20491;-62
2022/10/21 09:59:03;;;;;;;14.65;9.88;;;15.20;99.90;;;;;;5046029;28;20051;-64
2022/10/21 10:01:29;;;;;;;14.88;9.63;;;15.20;99.90;;;;;;5043497;28;20506;-62
2022/10/21 10:03:55;;;;;;;18.58;9.77;;;15.20;99.90;;;;;;5037938;28;20260;-62
2022/10/21 10:06:42;;;;;;;16.25;10.25;;;15.20;99.90;;;;;;5035570;28;20037;-62
2022/10/21 10:09:26;;;;;;;17.90;9.55;;;15.30;99.90;;;;;;5039615;28;20037;-63
2022/10/21 10:11:56;;;;;;;15.80;9.63;;;15.20;99.90;;;;;;5039926;28;20132;-62
2022/10/21 10:14:37;;;;;;;16.35;9.48;;;15.30;99.90;;;;;;5048811;28;20067;-62
2022/10/21 10:17:34;;;;;;;15.60;9.25;;;15.30;99.90;;;;;;5049480;28;20037;-62
2022/10/21 10:20:03;;;;;;;14.40;9.30;;;15.30;99.90;;;;;;5035652;28;20033;-62
2022/10/21 10:22:40;;;;;;;14.40;9.52;;;15.30;99.90;;;;;;5031692;28;20048;-61
2022/10/21 10:25:17;;;;;;;14.20;8.82;;;15.40;99.90;;;;;;5042594;28;20048;-65
2022/10/21 10:28:08;;;;;;;16.65;8.68;;;15.40;99.90;;;;;;5055667;28;21449;-62
2022/10/21 10:30:44;;;;;;;16.98;9.25;;;15.40;99.90;;;;;;5038018;28;20270;-62
2022/10/21 10:33:14;;;;;;;13.68;8.30;;;15.40;99.90;;;;;;5040446;28;20030;-63
2022/10/21 10:35:47;;;;;;;17.05;9.77;;;15.40;99.90;;;;;;5040178;28;20033;-63
2022/10/21 10:38:35;;;;;;;16.70;9.05;;;15.50;99.90;;;;;;5052441;28;20045;-62
2022/10/21 10:41:13;;;;;;;17.30;9.00;;;15.50;99.90;;;;;;5035535;28;20037;-61
2022/10/21 10:43:45;;;;;;;17.20;9.25;;;15.50;99.90;;;;;;5038410;28;20041;-62
2022/10/21 10:46:32;;;;;;;15.93;9.68;;;15.60;99.90;;;;;;5040072;28;20548;-61
2022/10/21 10:49:12;;;;;;;28.60;10.15;;;15.60;99.90;;;;;;5044460;28;20272;-62
2022/10/21 10:51:41;;;;;;;12.73;8.90;;;15.70;99.90;;;;;;5033671;28;20042;-62
2022/10/21 10:54:21;;;;;;;16.38;9.07;;;15.70;99.90;;;;;;5047453;28;20491;-62
2022/10/21 10:57:04;;;;;;;12.93;8.75;;;15.70;99.90;;;;;;5043067;28;20033;-62
2022/10/21 10:59:55;;;;;;;17.52;9.38;;;15.70;99.90;;;;;;5047395;28;20040;-62
2022/10/21 11:02:21;;;;;;;14.85;9.18;;;15.80;99.90;;;;;;5052223;28;20053;-62
2022/10/21 11:05:07;;;;;;;16.45;8.93;;;15.70;99.90;;;;;;5040120;28;20043;-66
2022/10/21 11:07:49;;;;;;;18.23;9.27;;;15.80;99.90;;;;;;5047400;28;20043;-62
2022/10/21 11:10:29;;;;;;;14.07;8.55;;;15.80;99.90;;;;;;5032522;28;20077;-62
2022/10/21 11:12:55;;;;;;;12.98;8.32;;;15.80;99.90;;;;;;5042141;28;20051;-65
2022/10/21 11:15:30;;;;;;;15.13;9.27;;;15.90;99.90;;;;;;5045525;28;20037;-66
2022/10/21 11:18:19;;;;;;;14.25;8.77;;;15.90;99.90;;;;;;5038981;28;20106;-62
2022/10/21 11:21:07;;;;;;;13.98;8.35;;;15.80;99.90;;;;;;5049311;28;20067;-64
2022/10/21 11:23:46;;;;;;;15.05;8.45;;;15.90;99.90;;;;;;5046671;28;20411;-64
2022/10/21 11:26:23;;;;;;;18.63;9.02;;;15.90;99.90;;;;;;5046435;28;20115;-63
2022/10/21 11:29:04;;;;;;;13.52;7.97;;;15.90;99.90;;;;;;5037984;28;20052;-66
2022/10/21 11:31:42;;;;;;;13.13;8.70;;;15.90;99.90;;;;;;5048925;28;20055;-63
2022/10/21 11:34:21;;;;;;;12.13;8.27;;;16.00;99.90;;;;;;5052582;28;20052;-62
2022/10/21 11:37:04;;;;;;;12.82;8.85;;;16.00;99.90;;;;;;5049706;28;20044;-64
2022/10/21 11:39:35;;;;;;;12.52;8.95;;;16.00;99.90;;;;;;5048939;28;20033;-62
2022/10/21 11:42:01;;;;;;;15.13;8.25;;;16.00;99.90;;;;;;5048923;28;20045;-62
2022/10/21 11:44:54;;;;;;;16.63;8.15;;;16.00;99.90;;;;;;5047863;28;20128;-62
2022/10/21 11:47:32;;;;;;;13.20;8.40;;;16.00;99.90;;;;;;5039191;28;20064;-62
2022/10/21 11:50:36;;;;;;;13.25;8.05;;;16.00;99.90;;;;;;5046007;28;20523;-65
2022/10/21 11:53:14;;;;;;;14.43;8.48;;;16.00;99.90;;;;;;5049224;28;20128;-66
2022/10/21 11:55:52;;;;;;;18.60;8.82;;;16.10;99.90;;;;;;5049181;28;20053;-62
2022/10/21 11:58:23;;;;;;;18.45;9.35;;;16.10;99.90;;;;;;5042502;28;20041;-62
2022/10/21 12:00:57;;;;;;;12.32;8.38;;;16.20;99.90;;;;;;5045081;28;20530;-62
2022/10/21 12:04:08;;;;;;;13.55;8.43;;;16.20;99.90;;;;;;5042954;28;20443;-62
2022/10/21 12:07:06;;;;;;;16.00;9.13;;;16.20;99.90;;;;;;5046415;28;20068;-62
2022/10/21 12:09:46;;;;;;;14.98;8.90;;;16.20;99.90;;;;;;5041402;28;20041;-62
2022/10/21 12:12:17;;;;;;;15.45;8.38;;;16.20;99.90;;;;;;5043425;28;20106;-63
2022/10/21 12:14:53;;;;;;;18.95;8.35;;;16.20;99.90;;;;;;5044841;28;20076;-63
2022/10/21 12:17:21;;;;;;;13.43;8.00;;;16.30;99.90;;;;;;5058843;28;20044;-63
2022/10/21 12:20:06;;;;;;;15.07;8.35;;;16.20;99.90;;;;;;5039432;28;20116;-63
2022/10/21 12:22:33;;;;;;;14.65;8.50;;;16.20;99.90;;;;;;5053905;28;20043;-64
2022/10/21 12:25:12;;;;;;;13.75;8.40;;;16.20;99.90;;;;;;5054020;28;20430;-62
2022/10/21 12:27:48;;;;;;;14.05;7.53;;;16.20;99.90;;;;;;5041810;28;20065;-63
2022/10/21 12:30:28;;;;;;;14.18;8.27;;;16.30;99.90;;;;;;5037616;28;20120;-63
2022/10/21 12:33:06;;;;;;;17.30;7.90;;;16.30;99.90;;;;;;5046371;28;20479;-64
2022/10/21 12:35:55;;;;;;;13.93;8.00;;;16.30;99.90;;;;;;5056207;28;20059;-63
2022/10/21 12:38:44;;;;;;;17.30;7.93;;;16.30;99.90;;;;;;5049126;28;20530;-63
2022/10/21 12:41:28;;;;;;;14.90;8.00;;;16.20;99.90;;;;;;5044482;28;20133;-63
2022/10/21 12:44:00;;;;;;;12.77;8.02;;;16.30;99.90;;;;;;5038180;28;20099;-63
2022/10/21 12:46:36;;;;;;;13.65;7.97;;;16.30;99.90;;;;;;5062761;28;20037;-66
2022/10/21 12:49:32;;;;;;;15.18;8.10;;;16.20;99.90;;;;;;5049234;28;20471;-62
2022/10/21 12:52:19;;;;;;;13.00;7.55;;;16.30;99.90;;;;;;5037165;28;20041;-66
2022/10/21 12:54:47;;;;;;;15.02;7.80;;;16.20;99.90;;;;;;5043757;28;20050;-63